Latest Weather Observations for Sydney - Observatory Hill

IDN60801

Issued at 8:02 am EST Sunday 31 May 2015 (issued every 30 minutes, with the page automatically refreshed every 10 minutes)

About weather observations | Map of weather stations | Latest weather observations for NSW | Other Formats
Station Details ID: 066062 Name: SYDNEY (OBSERVATORY HILL) Lat: -33.86 Lon: 151.21 Height: 39.0 m
Data from the previous 72 hours. | See also: Recent months at Sydney - Observatory Hill

* Apparent temperature (App Temp) for Sydney - Observatory Hill is calculated using temperature observations collected at Sydney - Observatory Hill and wind observations collected at Fort Denison, as wind observations are not currently provided for Sydney - Observatory Hill.

Date/Time
EST
Temp
°C
App
Temp
°C
Dew
Point
Rel
Hum
%
Delta-T
°C
Wind Press
QNH
hPa
Press
MSL
hPa
Rain
since 9 am
mm
Dir
 
Spd
km/h
Gust
km/h
Spd
kts
Gust
kts
31/08:00am 11.7 9.1 7.6 76 2.0 WNW 11 - 6 - 1016.5 1016.5 0.0
31/07:30am 11.6 9.0 7.7 77 1.9 WNW 11 - 6 - 1016.6 1016.6 0.0
31/07:00am 11.7 9.3 6.8 72 2.3 WNW 9 - 5 - 1016.4 1016.4 0.0
31/06:30am 11.9 8.6 6.2 68 2.7 W 13 - 7 - 1016.5 1016.5 0.0
31/06:00am 11.9 8.7 7.0 72 2.3 W 13 - 7 - 1016.2 1016.2 0.0
31/05:30am 11.9 8.6 6.6 70 2.5 WNW 13 - 7 - 1016.1 1016.1 0.0
31/05:00am 11.9 9.5 6.8 71 2.4 WNW 9 - 5 - 1015.7 1015.7 0.0
31/04:30am 11.8 8.9 6.3 69 2.6 W 11 - 6 - 1015.8 1015.8 0.0
31/04:00am 11.5 8.6 4.9 64 3.0 W 9 - 5 - 1015.7 1015.7 0.0
31/03:30am 11.6 8.7 4.6 62 3.2 W 9 - 5 - 1016.2 1016.2 0.0
31/03:00am 11.7 8.7 4.2 60 3.4 W 9 - 5 - 1016.3 1016.3 0.0
31/02:30am 12.0 8.7 4.7 61 3.3 W 11 - 6 - 1016.4 1016.4 0.0
31/02:00am 12.3 8.6 4.5 59 3.5 W 13 - 7 - 1016.8 1016.8 0.0
31/01:30am 12.4 8.0 4.9 60 3.4 W 17 - 9 - 1017.3 1017.3 0.0
31/01:00am 12.9 8.5 4.8 58 3.7 W 17 - 9 - 1017.1 1017.1 0.0
31/12:30am 13.2 8.9 5.1 58 3.8 WSW 17 - 9 - 1017.4 1017.4 0.0
31/12:00am 13.5 8.7 5.4 58 3.8 W 20 - 11 - 1017.5 1017.5 0.0
 
Date/Time
EST
Temp
°C
App
Temp
°C
Dew
Point
Rel
Hum
%
Delta-T
°C
Wind Press
QNH
hPa
Press
MSL
hPa
Rain
since 9 am
mm
Dir
 
Spd
km/h
Gust
km/h
Spd
kts
Gust
kts
30/11:30pm 13.7 9.5 5.8 59 3.7 W 17 - 9 - 1017.6 1017.6 0.0
30/11:00pm 13.9 9.5 6.7 62 3.5 W 19 - 10 - 1017.6 1017.6 0.0
30/10:30pm 14.3 10.7 6.9 61 3.6 W 15 - 8 - 1017.8 1017.8 0.0
30/10:00pm 14.3 11.8 8.0 66 3.1 W 11 - 6 - 1018.2 1018.2 0.0
30/09:30pm 14.5 12.6 9.1 70 2.8 W 9 - 5 - 1018.5 1018.5 0.0
30/09:00pm 14.7 12.8 9.1 69 2.9 WNW 9 - 5 - 1018.6 1018.6 0.0
30/08:30pm 14.9 13.4 9.3 69 2.9 W 7 - 4 - 1018.8 1018.8 0.0
30/08:00pm 14.7 13.2 10.5 76 2.2 W 9 - 5 - 1018.9 1018.9 0.0
30/07:30pm 14.6 13.1 10.4 76 2.2 W 9 - 5 - 1018.7 1018.7 0.0
30/07:00pm 15.0 13.3 10.0 72 2.6 W 9 - 5 - 1018.5 1018.5 0.0
30/06:30pm 15.1 13.1 10.3 73 2.5 W 11 - 6 - 1018.1 1018.1 0.0
30/06:00pm 15.4 12.8 9.3 67 3.1 WNW 13 - 7 - 1018.2 1018.2 0.0
30/05:30pm 15.5 13.8 8.5 63 3.6 WNW 7 - 4 - 1018.2 1018.2 0.0
30/05:00pm 15.9 13.5 8.6 62 3.7 W 11 - 6 - 1018.2 1018.2 0.0
30/04:30pm 16.0 15.1 7.7 58 4.2 SSW 2 - 1 - 1018.2 1018.2 0.0
30/04:00pm 16.3 14.7 7.8 57 4.3 SSW 6 - 3 - 1017.8 1017.8 0.0
30/03:30pm 16.5 14.8 7.7 56 4.4 WSW 6 - 3 - 1017.6 1017.6 0.0
30/03:00pm 17.0 14.6 7.1 52 4.9 WNW 9 - 5 - 1017.8 1017.8 0.0
30/02:30pm 17.4 14.7 7.5 52 5.0 WNW 11 - 6 - 1017.8 1017.8 0.0
30/02:00pm 18.0 17.4 9.1 56 4.6 E 2 - 1 - 1017.8 1017.8 0.0
30/01:30pm 18.1 17.7 9.7 58 4.4 E 2 - 1 - 1018.1 1018.1 0.0
30/01:00pm 16.9 15.3 8.6 58 4.3 W 7 - 4 - 1018.6 1018.6 0.0
30/12:30pm 17.0 16.5 9.4 61 4.0 SW 2 - 1 - 1019.0 1019.0 0.0
30/12:00pm 16.0 14.4 8.7 62 3.7 W 7 - 4 - 1019.8 1019.7 0.0
30/11:30am 15.8 13.8 8.5 62 3.7 W 9 - 5 - 1020.6 1020.5 0.0
30/11:00am 15.2 13.2 8.7 65 3.3 WNW 9 - 5 - 1021.2 1021.1 0.0
30/10:30am 14.6 12.5 9.6 72 2.6 W 11 - 6 - 1021.4 1021.3 0.0
30/10:00am 14.2 12.3 10.4 78 2.0 W 11 - 6 - 1021.5 1021.4 0.0
30/09:30am 13.5 11.6 10.5 82 1.6 W 11 - 6 - 1022.1 1022.0 0.0
30/09:00am 13.1 11.2 10.5 84 1.3 WNW 11 - 6 - 1022.1 1022.0 0.2
30/08:30am 12.1 9.6 9.8 86 1.2 W 13 - 7 - 1022.4 1022.3 0.2
30/08:00am 11.7 9.6 9.8 88 1.0 W 11 - 6 - 1022.0 1021.9 0.2
30/07:30am 11.5 9.6 9.2 86 1.2 WNW 9 - 5 - 1021.8 1021.7 0.2
30/07:00am 11.3 8.7 9.4 88 1.0 W 13 - 7 - 1022.0 1021.9 0.2
30/06:30am 11.2 8.6 9.3 88 1.0 W 13 - 7 - 1021.7 1021.6 0.2
30/06:00am 11.6 8.7 9.5 87 1.1 W 15 - 8 - 1021.8 1021.7 0.2
30/05:30am 11.8 8.7 8.8 82 1.5 WNW 15 - 8 - 1021.5 1021.4 0.2
30/05:00am 12.3 9.6 9.0 80 1.7 W 13 - 7 - 1021.4 1021.3 0.2
30/04:30am 12.7 9.6 8.8 77 2.0 W 15 - 8 - 1021.5 1021.4 0.2
30/04:00am 12.7 10.0 8.8 77 1.9 W 13 - 7 - 1021.7 1021.6 0.2
30/03:30am 12.9 10.2 8.8 76 2.1 WNW 13 - 7 - 1021.8 1021.7 0.2
30/03:00am 13.1 10.1 9.4 78 1.9 W 15 - 8 - 1022.2 1022.1 0.2
30/02:30am 13.1 9.9 9.9 81 1.6 W 17 - 9 - 1022.2 1022.1 0.2
30/02:00am 13.1 9.6 10.1 82 1.5 W 19 - 10 - 1022.6 1022.5 0.2
30/01:30am 13.2 9.8 10.6 84 1.4 W 19 - 10 - 1022.5 1022.4 0.2
30/01:00am 13.6 10.7 10.9 84 1.4 WNW 17 - 9 - 1022.3 1022.2 0.2
30/12:30am 13.9 11.9 11.6 86 1.2 W 13 - 7 - 1022.5 1022.4 0.2
30/12:00am 14.1 12.7 12.1 88 1.1 W 11 - 6 - 1022.7 1022.6 0.2
 
Date/Time
EST
Temp
°C
App
Temp
°C
Dew
Point
Rel
Hum
%
Delta-T
°C
Wind Press
QNH
hPa
Press
MSL
hPa
Rain
since 9 am
mm
Dir
 
Spd
km/h
Gust
km/h
Spd
kts
Gust
kts
29/11:30pm 14.0 12.8 11.5 85 1.3 W 9 - 5 - 1022.5 1022.4 0.2
29/11:00pm 14.5 13.0 13.0 91 0.8 W 13 - 7 - 1022.7 1022.6 0.2
29/10:30pm 14.5 12.7 13.2 92 0.7 W 15 - 8 - 1022.6 1022.5 0.2
29/10:00pm 15.2 14.7 13.7 91 0.8 WNW 9 - 5 - 1022.5 1022.4 0.2
29/09:30pm 14.9 13.8 13.1 89 1.0 WNW 11 - 6 - 1022.6 1022.5 0.2
29/09:00pm 15.0 15.2 13.0 88 1.1 W 4 - 2 - 1022.5 1022.4 0.2
29/08:30pm 15.1 15.7 13.0 87 1.2 W 2 - 1 - 1022.5 1022.4 0.2
29/08:00pm 15.5 14.5 12.4 82 1.7 W 9 - 5 - 1022.3 1022.2 0.2
29/07:30pm 16.3 14.9 10.8 70 2.9 WNW 9 - 5 - 1022.2 1022.1 0.2
29/07:00pm 16.3 15.4 10.8 70 2.9 WNW 6 - 3 - 1022.1 1022.0 0.2
29/06:30pm 17.2 16.0 9.6 61 4.0 WNW 6 - 3 - 1021.8 1021.7 0.2
29/06:00pm 17.6 16.4 9.5 59 4.2 WNW 6 - 3 - 1021.7 1021.6 0.2
29/05:30pm 17.7 15.6 9.8 60 4.2 W 11 - 6 - 1021.1 1021.0 0.2
29/05:00pm 17.8 16.6 10.4 62 3.9 WSW 7 - 4 - 1020.8 1020.7 0.2
29/04:30pm 18.1 17.3 11.2 64 3.8 NW 6 - 3 - 1020.8 1020.7 0.2
29/04:00pm 18.8 17.7 10.6 59 4.4 WNW 7 - 4 - 1020.6 1020.5 0.2
29/03:30pm 18.9 17.5 11.0 60 4.3 WNW 9 - 5 - 1020.4 1020.3 0.2
29/03:00pm 18.7 18.0 12.0 65 3.7 WNW 7 - 4 - 1020.2 1020.1 0.2
29/02:30pm 18.6 17.7 12.6 68 3.4 WNW 9 - 5 - 1020.0 1019.9 0.2
29/02:00pm 18.6 17.7 12.6 68 3.3 WNW 9 - 5 - 1019.9 1019.8 0.2
29/01:30pm 18.4 17.1 12.4 68 3.3 WSW 11 - 6 - 1019.8 1019.7 0.2
29/01:00pm 18.5 17.0 12.0 66 3.6 W 11 - 6 - 1020.2 1020.1 0.2
29/12:30pm 18.6 16.0 12.1 66 3.6 W 17 - 9 - 1020.1 1020.0 0.2
29/12:00pm 18.3 16.6 12.5 69 3.2 W 13 - 7 - 1020.3 1020.2 0.0
29/11:30am 18.2 17.0 14.1 77 2.4 WSW 13 - 7 - 1020.6 1020.5 0.0
29/11:00am 18.0 16.4 13.9 77 2.3 W 15 - 8 - 1020.7 1020.6 0.0
29/10:30am 17.9 17.1 14.0 78 2.2 W 11 - 6 - 1020.8 1020.7 0.0
29/10:00am 17.7 17.3 14.0 79 2.1 WNW 9 - 5 - 1020.8 1020.7 0.0
29/09:30am 17.6 16.3 13.7 78 2.2 W 13 - 7 - 1021.0 1020.9 0.0
29/09:00am 17.3 16.7 13.6 79 2.1 W 9 - 5 - 1020.7 1020.6 0.0
29/08:30am 17.1 16.3 13.0 77 2.3 W 9 - 5 - 1020.6 1020.5 0.0
29/08:00am 17.3 15.8 12.0 71 2.9 WNW 11 - 6 - 1020.3 1020.2 0.0
29/07:30am 17.1 15.8 11.4 69 3.1 W 9 - 5 - 1020.0 1019.9 0.0
29/07:00am 16.9 16.2 11.4 70 3.0 W 6 - 3 - 1019.6 1019.6 0.0
29/06:30am 16.9 16.2 11.4 70 3.0 WNW 6 - 3 - 1019.2 1019.2 0.0
29/06:00am 17.0 16.3 11.3 69 3.1 NW 6 - 3 - 1019.0 1019.0 0.0
29/05:30am 17.2 15.9 11.2 68 3.2 NW 9 - 5 - 1018.6 1018.6 0.0
29/05:00am 17.4 16.2 11.7 69 3.1 NW 9 - 5 - 1018.6 1018.6 0.0
29/04:30am 17.1 16.5 11.6 70 3.0 NW 6 - 3 - 1018.3 1018.3 0.0
29/04:00am 17.2 14.5 11.7 70 3.0 N 17 - 9 - 1018.0 1018.0 0.0
29/03:30am 17.1 14.8 11.8 71 2.9 N 15 - 8 - 1018.2 1018.2 0.0
29/03:00am 17.1 15.2 11.8 71 2.9 NNW 13 - 7 - 1018.4 1018.4 0.0
29/02:30am 17.1 15.3 12.0 72 2.8 NNW 13 - 7 - 1018.6 1018.6 0.0
29/02:00am 17.1 14.6 12.2 73 2.7 NNW 17 - 9 - 1019.0 1019.0 0.0
29/01:30am 16.7 15.8 12.5 76 2.3 WNW 9 - 5 - 1019.2 1019.2 0.0
29/01:00am 17.0 16.3 11.5 70 3.0 NNW 6 - 3 - 1019.5 1019.5 0.0
29/12:30am 17.1 16.3 11.2 68 3.2 N 6 - 3 - 1019.5 1019.5 0.0
29/12:00am 17.3 16.0 11.1 67 3.3 NNW 9 - 5 - 1020.0 1019.9 0.0
 
Date/Time
EST
Temp
°C
App
Temp
°C
Dew
Point
Rel
Hum
%
Delta-T
°C
Wind Press
QNH
hPa
Press
MSL
hPa
Rain
since 9 am
mm
Dir
 
Spd
km/h
Gust
km/h
Spd
kts
Gust
kts
28/11:30pm 17.7 14.9 11.3 66 3.5 NNW 17 - 9 - 1020.1 1020.0 0.0
28/11:00pm 17.3 15.4 11.8 70 3.0 NNW 13 - 7 - 1020.3 1020.2 0.0
28/10:30pm 17.2 15.6 11.7 70 3.0 NW 11 - 6 - 1020.5 1020.4 0.0
28/10:00pm 17.5 14.8 11.8 69 3.1 NNW 17 - 9 - 1020.8 1020.7 0.0
28/09:30pm 17.3 15.9 12.2 72 2.8 NNW 11 - 6 - 1020.6 1020.5 0.0
28/09:00pm 17.0 15.1 13.1 78 2.2 NW 15 - 8 - 1020.7 1020.6 0.0
28/08:30pm 16.8 17.2 13.7 82 1.8 WNW 4 - 2 - 1020.9 1020.8 0.0
28/08:00pm 16.7 16.7 13.6 82 1.7 W 6 - 3 - 1020.8 1020.7 0.0
28/07:30pm 17.1 17.2 12.8 76 2.4 NNW 4 - 2 - 1020.7 1020.6 0.0
28/07:00pm 17.1 17.6 12.8 76 2.4 W 2 - 1 - 1020.6 1020.5 0.0
28/06:30pm 17.2 18.0 12.7 75 2.5 CALM 0 - 0 - 1020.8 1020.7 0.0
28/06:00pm 17.8 17.9 12.7 72 2.8 NNE 4 - 2 - 1020.7 1020.6 0.0
28/05:30pm 18.4 18.8 12.6 69 3.2 WSW 2 - 1 - 1020.5 1020.4 0.0
28/05:00pm 19.3 19.1 13.0 67 3.6 NNE 6 - 3 - 1020.4 1020.3 0.0
28/04:30pm 19.9 19.1 12.9 64 4.0 NE 9 - 5 - 1020.3 1020.2 0.0
28/04:00pm 20.1 19.9 11.8 59 4.6 E 4 - 2 - 1020.0 1019.9 0.0
28/03:30pm 20.3 19.9 12.3 60 4.5 E 6 - 3 - 1020.2 1020.1 0.0
28/03:00pm 20.3 20.3 12.3 60 4.5 ENE 4 - 2 - 1020.3 1020.2 0.0
28/02:30pm 20.4 19.1 11.3 56 5.0 E 9 - 5 - 1020.1 1020.0 0.0
28/02:00pm 20.6 19.7 11.2 55 5.2 E 7 - 4 - 1020.3 1020.2 0.0
28/01:30pm 20.0 18.8 11.7 59 4.6 E 9 - 5 - 1020.4 1020.3 0.0
28/01:00pm 19.7 17.5 10.9 57 4.8 E 13 - 7 - 1020.8 1020.7 0.0
28/12:30pm 20.3 19.7 8.9 48 6.0 ESE 2 - 1 - 1021.3 1021.2 0.0
28/12:00pm 18.2 18.2 11.3 64 3.7 SW 2 - 1 - 1021.9 1021.8 0.0
28/11:30am 16.7 15.7 10.3 66 3.4 W 6 - 3 - 1022.2 1022.1 0.0
28/11:00am 16.5 14.6 10.4 67 3.2 WNW 11 - 6 - 1023.1 1023.0 0.0
28/10:30am 15.5 13.4 11.1 75 2.4 WNW 13 - 7 - 1023.5 1023.4 0.0
28/10:00am 15.4 12.9 11.2 76 2.2 WNW 15 - 8 - 1023.8 1023.7 0.0
28/09:30am 14.6 12.2 11.4 81 1.7 W 15 - 8 - 1023.8 1023.7 0.0
28/09:00am 13.6 11.7 10.6 82 1.6 WNW 11 - 6 - 1023.7 1023.6 0.0
28/08:30am 13.3 11.1 10.7 84 1.4 WNW 13 - 7 - 1023.7 1023.6 0.0

Other Formats:

Comma delimited format used in spreadsheet applications
http://www.bom.gov.au/fwo/IDN60801/IDN60801.94768.axf

JavaScript Object Notation format (JSON) in row-major order
http://www.bom.gov.au/fwo/IDN60801/IDN60801.94768.json